Time;durP1;ratioP1;P1;durP2;ratioP2;P2;SDS_P1;SDS_P2;PMS_P1;PMS_P2;Temp;Humidity;BMP_temperature;BMP_pressure;BME280_temperature;BME280_humidity;BME280_pressure;Samples;Min_cycle;Max_cycle;Signal;HPM_P1;HPM_P2
2021/12/19 00:09:13;;;;;;;;;49.50;44.50;4.80;71.60;;;;;;5064438;28;8744;-69
2021/12/19 00:11:39;;;;;;;;;55.00;47.75;4.90;71.10;;;;;;5065277;28;8792;-71
2021/12/19 00:14:06;;;;;;;;;47.50;44.00;5.00;70.40;;;;;;5074714;28;8761;-70
2021/12/19 00:16:32;;;;;;;;;51.50;46.75;5.00;70.10;;;;;;5067005;28;8811;-72
2021/12/19 00:18:59;;;;;;;;;35.50;35.50;5.10;69.70;;;;;;5077384;28;8788;-71
2021/12/19 00:21:26;;;;;;;;;44.50;41.50;5.10;69.00;;;;;;5077042;28;8760;-71
2021/12/19 00:23:53;;;;;;;;;42.00;41.00;5.20;68.70;;;;;;5077260;28;9401;-72
2021/12/19 00:26:19;;;;;;;;;44.25;41.50;5.00;69.60;;;;;;5077208;28;8818;-72
2021/12/19 00:28:47;;;;;;;;;43.25;41.25;5.20;68.90;;;;;;5076912;28;8745;-70
2021/12/19 00:31:14;;;;;;;;;42.25;40.25;5.10;68.90;;;;;;5074157;28;8841;-70
2021/12/19 00:33:41;;;;;;;;;39.50;38.75;5.20;69.00;;;;;;5077467;28;8748;-72
2021/12/19 00:36:08;;;;;;;;;41.50;39.25;5.10;69.20;;;;;;5078220;28;8796;-73
2021/12/19 00:38:34;;;;;;;;;43.00;40.50;5.20;68.90;;;;;;5078008;28;8769;-71
2021/12/19 00:41:02;;;;;;;;;71.75;59.75;5.00;69.70;;;;;;5077961;28;8849;-71
2021/12/19 00:43:45;;;;;;;;;51.50;46.00;5.00;70.20;;;;;;5078137;28;8803;-73
2021/12/19 00:46:13;;;;;;;;;48.75;44.50;5.20;69.40;;;;;;5078228;28;9442;-71
2021/12/19 00:48:42;;;;;;;;;51.50;44.00;5.30;68.40;;;;;;5077765;28;8873;-71
2021/12/19 00:51:10;;;;;;;;;46.00;43.00;5.40;68.00;;;;;;5077858;28;8791;-70
2021/12/19 00:53:36;;;;;;;;;53.50;44.75;5.20;69.30;;;;;;5077943;28;9478;-68
2021/12/19 00:56:03;;;;;;;;;51.75;46.00;5.30;69.10;;;;;;5077703;28;8788;-69
2021/12/19 00:58:28;;;;;;;;;54.25;48.00;5.40;68.30;;;;;;5077642;28;8764;-69
2021/12/19 01:00:55;;;;;;;;;54.75;48.75;5.20;68.90;;;;;;5077619;28;8837;-69
2021/12/19 01:03:21;;;;;;;;;43.75;42.00;5.20;69.10;;;;;;5077768;28;8772;-69
2021/12/19 01:05:48;;;;;;;;;43.00;40.00;5.10;69.60;;;;;;5077465;28;8756;-70
2021/12/19 01:08:15;;;;;;;;;45.50;42.50;5.10;69.40;;;;;;5077299;28;8800;-69
2021/12/19 01:10:44;;;;;;;;;42.25;40.75;5.10;69.60;;;;;;5077393;28;8776;-70
2021/12/19 01:13:11;;;;;;;;;46.75;43.00;5.20;69.30;;;;;;5077438;28;8772;-70
2021/12/19 01:15:37;;;;;;;;;34.75;34.75;5.00;69.90;;;;;;5077325;28;8839;-70
2021/12/19 01:18:03;;;;;;;;;44.50;41.50;5.10;69.90;;;;;;5077257;28;8822;-70
2021/12/19 01:20:35;;;;;;;;;42.00;40.75;5.00;69.90;;;;;;5077598;28;9430;-71
2021/12/19 01:23:01;;;;;;;;;52.25;44.50;4.80;70.60;;;;;;5077235;28;8757;-70
2021/12/19 01:25:27;;;;;;;;;42.00;40.75;4.90;71.00;;;;;;5076324;28;8768;-70
2021/12/19 01:27:53;;;;;;;;;43.50;41.00;5.10;70.20;;;;;;5077095;28;8775;-70
2021/12/19 01:30:19;;;;;;;;;42.00;41.00;5.20;69.30;;;;;;5077239;28;8773;-69
2021/12/19 01:32:45;;;;;;;;;50.50;45.75;5.20;69.50;;;;;;5076993;28;8768;-69
2021/12/19 01:35:14;;;;;;;;;38.25;37.75;5.10;69.60;;;;;;5077152;28;8829;-68
2021/12/19 01:37:40;;;;;;;;;38.25;37.50;5.10;69.80;;;;;;5076872;28;8788;-70
2021/12/19 01:40:08;;;;;;;;;37.00;37.00;5.10;69.80;;;;;;5077116;28;8865;-70
2021/12/19 01:42:37;;;;;;;;;40.75;39.00;5.30;69.50;;;;;;5076848;28;8780;-71
2021/12/19 01:45:06;;;;;;;;;46.00;42.25;5.30;69.50;;;;;;5076926;28;8841;-71
2021/12/19 01:47:31;;;;;;;;;42.00;40.25;5.30;69.20;;;;;;5076681;28;8787;-69
2021/12/19 01:49:57;;;;;;;;;43.25;41.00;5.20;69.50;;;;;;5076944;28;8792;-70
2021/12/19 01:52:24;;;;;;;;;40.25;39.50;5.10;70.00;;;;;;5076846;28;8845;-71
2021/12/19 01:54:50;;;;;;;;;35.75;33.50;5.10;70.00;;;;;;5076758;28;8772;-71
2021/12/19 01:57:17;;;;;;;;;37.25;37.25;5.20;69.80;;;;;;5076730;28;8788;-69
2021/12/19 01:59:43;;;;;;;;;44.50;41.25;5.30;69.60;;;;;;5076503;28;8772;-70
2021/12/19 02:02:09;;;;;;;;;44.75;42.00;5.50;68.40;;;;;;5076440;28;8772;-71
2021/12/19 02:04:35;;;;;;;;;43.00;41.50;5.20;69.90;;;;;;5076685;28;8862;-70
2021/12/19 02:07:01;;;;;;;;;42.25;40.75;5.30;70.40;;;;;;5076404;28;8836;-68
2021/12/19 02:09:27;;;;;;;;;38.00;36.50;5.10;70.50;;;;;;5076507;28;8861;-68
2021/12/19 02:11:53;;;;;;;;;40.00;38.75;4.90;71.70;;;;;;5076221;28;8783;-69
2021/12/19 02:14:20;;;;;;;;;41.25;40.00;5.00;72.70;;;;;;5076227;28;8757;-70
2021/12/19 02:16:47;;;;;;;;;37.00;37.00;5.10;71.70;;;;;;5076140;28;8808;-71
2021/12/19 02:19:14;;;;;;;;;40.25;39.25;5.10;71.90;;;;;;5076252;28;8792;-68
2021/12/19 02:21:40;;;;;;;;;37.00;36.75;5.10;72.30;;;;;;5076347;28;9523;-69
2021/12/19 02:24:09;;;;;;;;;38.00;36.50;5.30;71.60;;;;;;5075996;28;8854;-72
2021/12/19 02:26:38;;;;;;;;;36.50;36.50;5.00;73.10;;;;;;5075988;28;8874;-72
2021/12/19 02:29:06;;;;;;;;;39.75;37.75;4.90;74.10;;;;;;5075893;28;8753;-70
2021/12/19 02:31:32;;;;;;;;;39.00;38.75;5.00;73.30;;;;;;5076080;28;8756;-70
2021/12/19 02:34:13;;;;;;;;;39.00;37.00;5.20;72.50;;;;;;5075807;28;8768;-71
2021/12/19 02:39:34;;;;;;;;;40.75;39.75;5.00;73.20;;;;;;5076015;28;8855;-69
2021/12/19 02:49:58;;;;;;;;;35.50;35.50;4.90;74.40;;;;;;5075870;28;8800;-71
2021/12/19 02:52:24;;;;;;;;;38.75;38.25;5.00;73.80;;;;;;5075709;28;8795;-69
2021/12/19 02:54:50;;;;;;;;;46.25;41.75;5.00;74.50;;;;;;5075404;28;8792;-70
2021/12/19 02:57:16;;;;;;;;;37.25;37.25;5.20;73.60;;;;;;5075280;28;8806;-70
2021/12/19 02:59:42;;;;;;;;;36.50;36.50;5.20;73.30;;;;;;5075332;28;8853;-69
2021/12/19 03:02:08;;;;;;;;;35.25;35.25;5.00;74.40;;;;;;5075299;28;8757;-71
2021/12/19 03:04:34;;;;;;;;;37.75;36.50;5.00;74.60;;;;;;5075195;28;8753;-69
2021/12/19 03:07:00;;;;;;;;;38.25;37.75;5.10;74.30;;;;;;5075068;28;8804;-69
2021/12/19 03:10:30;;;;;;;;;34.50;32.50;5.00;75.10;;;;;;5075162;28;8775;-70
2021/12/19 03:12:31;;;;;;;;;35.50;35.50;5.10;74.40;;;;;;5067672;28;8895;-69
2021/12/19 03:18:00;;;;;;;;;37.00;37.00;5.30;73.40;;;;;;5074993;28;8788;-70
2021/12/19 03:20:31;;;;;;;;;23.00;20.25;5.30;73.30;;;;;;5075338;28;8800;-70
2021/12/19 03:22:58;;;;;;;;;29.25;29.25;5.10;74.30;;;;;;5074912;28;9434;-70
2021/12/19 03:25:25;;;;;;;;;27.25;27.25;5.30;73.50;;;;;;5074223;28;8799;-72
2021/12/19 03:27:51;;;;;;;;;35.75;35.75;5.40;72.90;;;;;;5074908;28;8769;-69
2021/12/19 03:30:18;;;;;;;;;27.75;27.75;5.40;72.60;;;;;;5075017;28;8878;-70
2021/12/19 03:32:44;;;;;;;;;31.25;31.25;5.40;72.70;;;;;;5074784;28;8895;-70
2021/12/19 03:35:11;;;;;;;;;33.25;33.25;5.50;72.80;;;;;;5074995;28;8776;-70
2021/12/19 03:37:37;;;;;;;;;32.25;32.25;5.60;72.10;;;;;;5074896;28;8895;-71
2021/12/19 03:40:08;;;;;;;;;31.00;31.00;5.40;73.40;;;;;;5074685;28;8896;-69
2021/12/19 03:42:36;;;;;;;;;38.50;36.25;5.50;72.90;;;;;;5074944;28;9415;-70
2021/12/19 03:45:03;;;;;;;;;32.75;32.25;5.50;72.90;;;;;;5074837;28;8771;-70
2021/12/19 03:47:29;;;;;;;;;33.00;33.00;5.40;73.60;;;;;;5073977;28;8761;-71
2021/12/19 03:49:54;;;;;;;;;8.50;8.50;5.30;73.70;;;;;;5074842;28;8816;-68
2021/12/19 03:52:20;;;;;;;;;32.50;30.00;5.40;73.30;;;;;;5074561;28;8799;-69
2021/12/19 03:54:46;;;;;;;;;35.25;35.25;5.60;73.00;;;;;;5074429;28;8776;-69
2021/12/19 03:57:12;;;;;;;;;32.50;32.50;5.40;73.70;;;;;;5074394;28;8800;-69
2021/12/19 03:59:38;;;;;;;;;36.25;34.50;5.50;73.90;;;;;;5074637;28;8771;-70
2021/12/19 04:02:04;;;;;;;;;34.50;34.00;5.40;74.20;;;;;;5074647;28;8756;-70
2021/12/19 04:04:35;;;;;;;;;33.25;33.25;5.40;74.20;;;;;;5074364;28;8930;-69
2021/12/19 04:07:01;;;;;;;;;27.75;26.75;5.50;73.90;;;;;;5074172;28;8828;-71
2021/12/19 04:09:26;;;;;;;;;36.50;36.00;5.40;74.40;;;;;;5074359;28;8869;-70
2021/12/19 04:11:55;;;;;;;;;35.00;35.00;5.50;74.50;;;;;;5074321;28;8752;-69
2021/12/19 04:14:22;;;;;;;;;26.75;26.75;5.60;73.40;;;;;;5074296;28;8785;-69
2021/12/19 04:16:47;;;;;;;;;37.75;36.75;5.50;73.80;;;;;;5074425;28;8792;-70
2021/12/19 04:19:13;;;;;;;;;29.00;29.00;5.40;74.20;;;;;;5074291;28;8802;-70
2021/12/19 04:21:39;;;;;;;;;24.50;22.75;5.40;74.80;;;;;;5074173;28;8868;-70
2021/12/19 04:24:06;;;;;;;;;35.00;35.00;5.30;75.00;;;;;;5074423;28;8867;-71
2021/12/19 04:26:31;;;;;;;;;34.00;34.00;5.30;75.90;;;;;;5074432;28;9654;-70
2021/12/19 04:28:57;;;;;;;;;31.25;31.25;5.40;74.70;;;;;;5074159;28;8891;-69
2021/12/19 04:31:23;;;;;;;;;31.00;31.00;5.40;74.60;;;;;;5074127;28;8745;-69
2021/12/19 04:33:49;;;;;;;;;17.00;17.00;5.50;73.70;;;;;;5074120;28;8776;-71
2021/12/19 04:36:22;;;;;;;;;31.00;31.00;5.60;73.10;;;;;;5074315;28;8891;-70
2021/12/19 04:55:21;;;;;;;;;42.25;39.50;5.60;72.90;;;;;;5051867;28;8748;-69
2021/12/19 04:58:03;;;;;;;;;34.50;34.50;5.60;72.70;;;;;;5051603;28;8893;-69
2021/12/19 05:00:39;;;;;;;;;27.00;27.00;5.80;71.70;;;;;;5055480;28;8768;-70
2021/12/19 05:03:09;;;;;;;;;34.00;34.00;5.70;72.20;;;;;;5055462;28;8780;-68
2021/12/19 05:06:00;;;;;;;;;30.50;30.50;5.70;72.20;;;;;;5055728;28;9541;-70
2021/12/19 05:14:14;;;;;;;;;27.00;27.00;5.80;72.00;;;;;;5055427;28;8740;-70
2021/12/19 05:16:43;;;;;;;;;36.25;33.75;5.90;71.60;;;;;;5077537;28;8804;-70
2021/12/19 05:19:22;;;;;;;;;32.75;32.25;5.60;72.90;;;;;;5077317;28;8858;-70
2021/12/19 05:21:51;;;;;;;;;35.50;33.00;5.80;72.60;;;;;;5077624;28;8864;-67
2021/12/19 05:24:46;;;;;;;;;42.50;41.00;5.80;72.50;;;;;;5077495;28;9375;-72
2021/12/19 05:27:12;;;;;;;;;37.25;37.25;5.80;72.50;;;;;;5077404;28;8877;-67
2021/12/19 05:29:39;;;;;;;;;38.50;38.00;5.80;72.30;;;;;;5077372;28;8772;-70
2021/12/19 05:32:06;;;;;;;;;34.00;34.00;5.70;72.80;;;;;;5077292;28;8853;-72
2021/12/19 05:34:32;;;;;;;;;31.00;31.00;5.60;73.30;;;;;;5077022;28;8776;-68
2021/12/19 05:45:12;;;;;;;;;40.75;38.00;5.70;72.70;;;;;;5076869;28;8882;-71
2021/12/19 05:47:43;;;;;;;;;38.75;37.00;5.70;73.10;;;;;;5076949;28;8768;-68
2021/12/19 05:50:09;;;;;;;;;34.75;34.75;5.80;72.80;;;;;;5076615;28;8815;-68
2021/12/19 05:52:36;;;;;;;;;37.75;37.75;5.80;72.70;;;;;;5076892;28;8761;-68
2021/12/19 05:55:03;;;;;;;;;25.75;25.75;6.00;71.90;;;;;;5076613;28;8863;-68
2021/12/19 05:57:29;;;;;;;;;31.25;31.25;6.10;71.30;;;;;;5076420;28;8803;-69
2021/12/19 05:59:54;;;;;;;;;35.50;35.50;6.00;71.30;;;;;;5076456;28;8775;-69
2021/12/19 06:02:20;;;;;;;;;31.75;30.25;6.20;70.90;;;;;;5076650;28;8780;-69
2021/12/19 06:04:46;;;;;;;;;38.75;37.00;6.30;70.00;;;;;;5076449;28;8772;-68
2021/12/19 06:07:12;;;;;;;;;39.00;38.75;6.10;70.80;;;;;;5076141;28;8918;-69
2021/12/19 06:09:38;;;;;;;;;36.25;36.25;6.20;70.60;;;;;;5076320;28;8749;-68
2021/12/19 06:12:04;;;;;;;;;34.25;34.25;6.30;70.50;;;;;;5075775;28;8779;-67
2021/12/19 06:14:33;;;;;;;;;26.50;26.50;6.40;69.70;;;;;;5076428;28;8783;-68
2021/12/19 06:17:00;;;;;;;;;39.25;37.50;6.10;71.30;;;;;;5076385;28;8796;-70
2021/12/19 06:19:26;;;;;;;;;31.75;31.50;5.80;73.00;;;;;;5076474;28;8797;-70
2021/12/19 06:21:52;;;;;;;;;30.25;30.25;5.90;72.40;;;;;;5076372;28;9442;-68
2021/12/19 06:24:19;;;;;;;;;29.75;29.75;5.90;72.50;;;;;;5076018;28;8780;-71
2021/12/19 06:26:44;;;;;;;;;28.00;28.00;6.00;71.70;;;;;;5075995;28;8794;-70
2021/12/19 06:29:10;;;;;;;;;31.50;31.50;5.90;71.70;;;;;;5075923;28;8776;-70
2021/12/19 06:31:36;;;;;;;;;30.00;27.50;6.00;71.60;;;;;;5076155;28;8765;-72
2021/12/19 06:34:02;;;;;;;;;30.75;30.75;6.00;71.30;;;;;;5075872;28;8760;-70
2021/12/19 06:36:28;;;;;;;;;30.00;30.00;6.10;71.40;;;;;;5076053;28;8792;-70
2021/12/19 06:38:54;;;;;;;;;31.50;31.50;6.30;70.30;;;;;;5076078;28;9419;-69
2021/12/19 06:41:20;;;;;;;;;33.75;33.75;6.20;70.50;;;;;;5075685;28;8791;-69
2021/12/19 06:43:46;;;;;;;;;34.25;34.25;6.10;70.50;;;;;;5075558;28;8764;-70
2021/12/19 06:46:12;;;;;;;;;32.50;32.50;6.20;70.30;;;;;;5075587;28;8752;-68
2021/12/19 06:48:38;;;;;;;;;38.00;37.00;6.50;69.70;;;;;;5075451;28;8901;-68
2021/12/19 06:51:04;;;;;;;;;36.00;34.25;6.80;67.70;;;;;;5075719;28;8764;-71
2021/12/19 06:53:30;;;;;;;;;32.00;32.00;6.90;67.10;;;;;;5075516;28;8886;-67
2021/12/19 06:55:56;;;;;;;;;35.75;35.75;6.80;67.70;;;;;;5075369;28;8851;-70
2021/12/19 06:58:22;;;;;;;;;37.00;35.75;6.50;69.10;;;;;;5075602;28;8774;-69
2021/12/19 07:00:48;;;;;;;;;34.50;34.50;6.40;69.30;;;;;;5075543;28;8768;-70
2021/12/19 07:03:15;;;;;;;;;42.50;41.00;6.20;70.30;;;;;;5075223;28;8787;-71
2021/12/19 07:05:41;;;;;;;;;38.25;37.50;6.20;70.70;;;;;;5075450;28;8887;-70
2021/12/19 07:08:07;;;;;;;;;34.00;34.00;6.20;70.80;;;;;;5075061;28;8907;-68
2021/12/19 07:10:33;;;;;;;;;42.00;40.00;6.30;70.50;;;;;;5075191;28;9387;-69
2021/12/19 07:12:59;;;;;;;;;29.25;29.25;6.10;70.70;;;;;;5075337;28;8768;-69
2021/12/19 07:15:25;;;;;;;;;37.00;35.75;6.00;71.60;;;;;;5074981;28;8779;-70
2021/12/19 07:17:52;;;;;;;;;34.25;33.50;6.40;70.80;;;;;;5075173;28;9414;-70
2021/12/19 07:20:17;;;;;;;;;38.75;37.75;6.50;69.20;;;;;;5075488;28;8816;-70
2021/12/19 07:22:43;;;;;;;;;38.50;37.50;6.30;69.60;;;;;;5071949;28;8780;-69
2021/12/19 07:25:09;;;;;;;;;40.00;39.00;6.30;70.40;;;;;;5061685;28;8786;-70
2021/12/19 07:27:36;;;;;;;;;29.50;29.50;6.10;71.30;;;;;;5064421;28;8767;-69
2021/12/19 07:30:04;;;;;;;;;38.00;37.25;6.20;71.00;;;;;;5066373;28;8815;-69
2021/12/19 07:32:31;;;;;;;;;30.75;30.75;6.40;70.30;;;;;;5063725;28;8791;-69
2021/12/19 07:34:57;;;;;;;;;37.50;36.50;6.30;70.60;;;;;;5054886;28;9588;-70
2021/12/19 07:37:23;;;;;;;;;39.75;38.00;6.50;69.80;;;;;;5065327;28;8922;-69
2021/12/19 07:39:56;;;;;;;;;42.25;39.25;6.30;70.30;;;;;;5055234;28;9410;-69
2021/12/19 07:42:22;;;;;;;;;38.25;37.25;6.40;69.90;;;;;;5054890;28;8763;-68
2021/12/19 07:44:48;;;;;;;;;35.75;35.75;6.30;70.00;;;;;;5054508;28;8783;-70
2021/12/19 07:47:15;;;;;;;;;40.00;38.50;6.30;70.40;;;;;;5054608;28;8893;-69
2021/12/19 07:49:41;;;;;;;;;38.50;37.25;6.30;70.60;;;;;;5066143;28;8949;-68
2021/12/19 07:52:07;;;;;;;;;39.00;38.25;6.20;70.60;;;;;;5066552;28;8780;-71
2021/12/19 07:54:33;;;;;;;;;39.00;38.00;6.20;71.30;;;;;;5072389;28;8806;-74
2021/12/19 07:56:59;;;;;;;;;47.25;41.00;6.40;71.70;;;;;;5069420;28;8800;-77
2021/12/19 07:59:25;;;;;;;;;33.75;33.00;6.60;71.10;;;;;;5072509;28;8790;-79
2021/12/19 08:01:51;;;;;;;;;39.00;38.00;6.70;69.90;;;;;;5072421;28;8952;-73
2021/12/19 08:04:16;;;;;;;;;53.00;45.50;6.50;69.80;;;;;;5067563;28;9392;-73
2021/12/19 08:06:42;;;;;;;;;56.00;47.25;6.40;70.70;;;;;;5064024;28;8830;-74
2021/12/19 08:09:10;;;;;;;;;55.50;47.00;6.40;70.60;;;;;;5054004;28;8763;-74
2021/12/19 08:11:40;;;;;;;;;42.75;40.25;6.30;71.20;;;;;;5053589;28;8797;-74
2021/12/19 08:14:08;;;;;;;;;46.75;40.75;6.20;71.60;;;;;;5067824;28;8871;-73
2021/12/19 08:16:34;;;;;;;;;55.00;46.75;6.30;71.40;;;;;;5070732;28;8805;-70
2021/12/19 08:19:00;;;;;;;;;56.00;48.25;6.30;71.70;;;;;;5072383;28;8819;-71
2021/12/19 08:21:26;;;;;;;;;57.75;49.00;6.40;71.30;;;;;;5070032;28;8886;-72
2021/12/19 08:23:52;;;;;;;;;55.25;48.00;6.40;71.00;;;;;;5072670;28;8899;-72
2021/12/19 08:26:19;;;;;;;;;59.00;51.00;6.50;71.50;;;;;;5072706;28;8760;-72
2021/12/19 08:28:45;;;;;;;;;54.75;47.50;6.50;71.40;;;;;;5072409;28;9406;-68
2021/12/19 08:31:11;;;;;;;;;48.75;43.75;6.70;70.80;;;;;;5073368;28;8781;-71
2021/12/19 08:33:37;;;;;;;;;54.75;46.00;6.70;69.90;;;;;;5073220;28;8772;-69
2021/12/19 08:36:02;;;;;;;;;52.50;46.00;6.90;69.60;;;;;;5076596;28;8813;-69
2021/12/19 08:38:28;;;;;;;;;48.25;43.00;7.10;69.90;;;;;;5077060;28;8749;-70
2021/12/19 08:40:55;;;;;;;;;48.50;42.25;7.20;67.90;;;;;;5076876;28;8903;-70
2021/12/19 08:43:21;;;;;;;;;48.50;43.25;7.30;66.50;;;;;;5077977;28;8768;-71
2021/12/19 08:45:47;;;;;;;;;42.25;38.75;7.10;67.30;;;;;;5077724;28;8780;-71
2021/12/19 08:48:13;;;;;;;;;47.25;42.00;7.10;67.50;;;;;;5077734;28;8752;-66
2021/12/19 08:50:40;;;;;;;;;40.25;38.25;7.60;66.20;;;;;;5075138;28;8772;-68
2021/12/19 08:53:06;;;;;;;;;45.00;41.00;7.80;66.00;;;;;;5077505;28;8776;-71
2021/12/19 08:55:32;;;;;;;;;31.25;31.00;8.20;64.90;;;;;;5076365;28;8752;-71
2021/12/19 08:57:58;;;;;;;;;33.75;33.75;8.00;64.50;;;;;;5076556;28;8796;-74
2021/12/19 09:00:25;;;;;;;;;37.00;37.00;8.00;64.10;;;;;;5075893;28;8841;-74
2021/12/19 09:02:53;;;;;;;;;25.00;25.00;8.10;63.60;;;;;;5076196;28;8887;-71
2021/12/19 09:05:20;;;;;;;;;39.00;37.50;8.10;63.90;;;;;;5076347;28;8925;-71
2021/12/19 09:07:47;;;;;;;;;34.75;34.00;8.40;62.90;;;;;;5075869;28;8812;-69
2021/12/19 09:10:13;;;;;;;;;24.75;24.25;8.40;62.50;;;;;;5076046;28;8764;-72
2021/12/19 09:12:39;;;;;;;;;30.25;30.25;8.60;62.10;;;;;;5075522;28;8792;-71
2021/12/19 09:15:06;;;;;;;;;32.00;32.00;8.60;61.20;;;;;;5076086;28;8802;-71
2021/12/19 09:17:32;;;;;;;;;34.50;34.50;8.90;60.80;;;;;;5076096;28;8796;-71
2021/12/19 09:19:58;;;;;;;;;31.25;31.25;8.80;60.60;;;;;;5077172;28;9582;-71
2021/12/19 09:22:24;;;;;;;;;33.25;32.00;8.90;60.60;;;;;;5077184;28;8764;-73
2021/12/19 09:24:50;;;;;;;;;38.50;37.00;8.90;60.30;;;;;;5077279;28;8745;-70
2021/12/19 09:27:16;;;;;;;;;30.25;30.25;9.00;60.40;;;;;;5077299;28;8771;-73
2021/12/19 09:29:42;;;;;;;;;36.25;35.25;8.60;60.30;;;;;;5077108;28;8749;-73
2021/12/19 09:32:07;;;;;;;;;29.00;27.50;8.40;61.70;;;;;;5077002;28;8903;-68
2021/12/19 09:34:34;;;;;;;;;42.25;38.75;8.50;61.60;;;;;;5076983;28;8756;-67
2021/12/19 09:37:00;;;;;;;;;28.75;28.75;8.60;60.70;;;;;;5076314;28;8870;-67
2021/12/19 09:39:26;;;;;;;;;32.75;30.75;8.60;60.60;;;;;;5075930;28;8760;-69
2021/12/19 09:41:55;;;;;;;;;43.25;38.50;8.40;60.50;;;;;;5075490;28;8780;-65
2021/12/19 09:44:22;;;;;;;;;39.00;35.50;8.40;60.90;;;;;;5075681;28;8772;-67
2021/12/19 09:46:49;;;;;;;;;38.00;36.75;8.20;61.20;;;;;;5074606;28;8777;-68
2021/12/19 09:49:17;;;;;;;;;41.00;39.00;7.80;62.20;;;;;;5075523;28;8800;-69
2021/12/19 09:51:44;;;;;;;;;39.00;38.00;7.90;62.70;;;;;;5075355;28;8784;-69
2021/12/19 09:54:11;;;;;;;;;33.50;33.00;7.90;62.80;;;;;;5075256;28;8768;-70
2021/12/19 09:56:38;;;;;;;;;42.75;39.50;8.00;63.00;;;;;;5072622;28;8934;-69
2021/12/19 09:59:13;;;;;;;;;43.50;39.75;8.20;63.00;;;;;;5076513;28;8775;-66
2021/12/19 10:01:39;;;;;;;;;39.25;37.50;8.10;62.00;;;;;;5076287;28;8757;-72
2021/12/19 10:04:28;;;;;;;;;38.75;37.50;8.20;61.90;;;;;;5075647;28;8757;-70
2021/12/19 10:07:13;;;;;;;;;35.75;35.75;8.60;61.80;;;;;;5076290;28;8808;-74
2021/12/19 10:09:54;;;;;;;;;42.25;36.50;9.60;58.30;;;;;;5076454;28;8761;-69
2021/12/19 10:15:01;;;;;;;;;45.50;37.25;11.90;51.70;;;;;;5076215;28;8756;-70
2021/12/19 10:17:27;;;;;;;;;49.25;39.75;12.60;49.50;;;;;;5063669;28;8842;-71
2021/12/19 10:19:54;;;;;;;;;44.33;36.00;12.60;50.00;;;;;;5070642;28;8792;-74
2021/12/19 10:22:27;;;;;;;;;45.67;38.67;13.90;47.40;;;;;;5060977;28;8783;-70
2021/12/19 10:25:14;;;;;;;;;26.67;26.67;14.00;46.80;;;;;;5056083;28;9582;-68
2021/12/19 10:27:43;;;;;;;;;29.33;27.67;13.90;45.30;;;;;;5058711;28;8860;-70
2021/12/19 10:30:21;;;;;;;;;34.00;31.00;16.00;41.30;;;;;;5073115;28;8795;-64
2021/12/19 10:33:02;;;;;;;;;23.00;23.00;16.40;40.00;;;;;;5064717;28;8859;-64
2021/12/19 10:35:31;;;;;;;;;27.00;27.00;16.50;38.10;;;;;;5074239;28;8761;-66
2021/12/19 10:37:58;;;;;;;;;23.67;23.67;16.70;39.50;;;;;;5074405;28;8808;-69
2021/12/19 10:40:25;;;;;;;;;28.33;28.33;17.80;36.30;;;;;;5063981;28;12128;-68
2021/12/19 10:43:03;;;;;;;;;21.00;21.00;19.30;35.00;;;;;;5068406;28;11702;-66
2021/12/19 10:45:30;;;;;;;;;27.67;27.00;18.00;34.50;;;;;;5071027;28;11507;-70
2021/12/19 10:48:15;;;;;;;;;23.75;23.75;19.00;36.20;;;;;;5061361;28;11590;-71
2021/12/19 10:50:46;;;;;;;;;28.33;28.33;23.20;30.30;;;;;;5068279;28;11519;-70
2021/12/19 10:53:12;;;;;;;;;24.75;24.75;24.40;29.30;;;;;;5059877;28;11623;-66
2021/12/19 10:55:47;;;;;;;;;27.50;27.50;26.30;27.50;;;;;;5062415;28;11494;-66
2021/12/19 10:58:32;;;;;;;;;31.33;31.00;28.20;25.40;;;;;;5058156;28;11511;-64
2021/12/19 11:01:04;;;;;;;;;32.33;30.00;27.00;24.90;;;;;;5063026;28;11512;-65
2021/12/19 11:03:43;;;;;;;;;35.67;33.00;27.50;25.10;;;;;;5059390;28;11705;-65
2021/12/19 11:06:21;;;;;;;;;34.00;31.33;29.00;24.60;;;;;;5072409;28;9448;-66
2021/12/19 11:08:48;;;;;;;;;34.00;32.00;31.40;22.60;;;;;;5075189;28;11479;-65
2021/12/19 11:11:44;;;;;;;;;36.00;32.33;29.30;22.70;;;;;;5069207;28;11502;-70
2021/12/19 11:14:13;;;;;;;;;29.75;28.75;28.30;23.80;;;;;;5061929;28;11573;-67
2021/12/19 11:16:40;;;;;;;;;26.25;26.25;30.00;22.40;;;;;;5062608;28;11573;-70
2021/12/19 11:19:07;;;;;;;;;28.25;28.25;30.90;22.00;;;;;;5067123;28;11609;-68
2021/12/19 11:21:35;;;;;;;;;30.67;30.00;30.10;22.30;;;;;;5068187;28;12192;-72
2021/12/19 11:24:06;;;;;;;;;34.00;32.67;31.30;21.80;;;;;;5063220;28;11540;-65
2021/12/19 11:26:34;;;;;;;;;33.00;31.67;31.80;20.60;;;;;;5059531;28;11621;-62
2021/12/19 11:29:01;;;;;;;;;33.33;31.00;31.00;21.50;;;;;;5054463;28;12173;-61
2021/12/19 11:31:30;;;;;;;;;35.67;32.33;31.60;21.10;;;;;;5061171;28;8769;-63
2021/12/19 11:34:07;;;;;;;;;26.25;26.25;32.20;21.00;;;;;;5066866;28;11516;-64
2021/12/19 11:36:39;;;;;;;;;18.25;18.25;31.50;20.20;;;;;;5063182;28;11554;-64
2021/12/19 11:39:07;;;;;;;;;14.75;14.75;27.40;22.70;;;;;;5054790;28;11543;-63
2021/12/19 11:41:33;;;;;;;;;16.50;16.50;26.40;24.50;;;;;;5065420;28;11585;-63
2021/12/19 11:44:06;;;;;;;;;16.75;16.75;27.40;23.20;;;;;;5054325;28;11504;-63
2021/12/19 11:46:52;;;;;;;;;29.00;28.75;26.30;23.30;;;;;;5054759;28;11497;-63
2021/12/19 11:49:25;;;;;;;;;29.67;29.33;28.00;23.40;;;;;;5054468;28;11533;-62
2021/12/19 11:52:23;;;;;;;;;26.00;26.00;29.80;21.60;;;;;;5060578;28;11547;-62
2021/12/19 11:55:13;;;;;;;;;21.25;21.25;30.40;21.30;;;;;;5054983;28;11631;-61
2021/12/19 11:58:03;;;;;;;;;19.25;19.25;30.00;20.90;;;;;;5059274;28;11513;-64
2021/12/19 12:00:31;;;;;;;;;18.00;18.00;26.90;22.80;;;;;;5062283;28;11626;-67
2021/12/19 12:03:12;;;;;;;;;22.75;22.75;27.50;23.20;;;;;;5074395;28;12145;-66
2021/12/19 12:05:39;;;;;;;;;19.25;19.25;27.90;22.80;;;;;;5066956;28;11520;-68
2021/12/19 12:08:05;;;;;;;;;19.00;19.00;29.70;21.60;;;;;;5053529;28;11549;-69
2021/12/19 12:10:59;;;;;;;;;19.50;19.50;28.00;22.60;;;;;;5056274;28;11549;-68
2021/12/19 12:13:28;;;;;;;;;24.50;24.50;29.40;21.70;;;;;;5050183;28;11501;-65
2021/12/19 12:16:08;;;;;;;;;23.25;23.25;27.20;23.00;;;;;;5047707;28;11584;-67
2021/12/19 12:18:37;;;;;;;;;17.00;17.00;26.40;23.50;;;;;;5046381;28;11556;-67
2021/12/19 12:21:30;;;;;;;;;12.00;12.00;26.70;23.00;;;;;;5051026;28;11465;-66
2021/12/19 12:24:00;;;;;;;;;19.75;19.75;25.90;23.40;;;;;;5047822;28;11431;-64
2021/12/19 12:26:33;;;;;;;;;21.00;21.00;27.30;22.70;;;;;;5048477;28;11489;-65
2021/12/19 12:28:59;;;;;;;;;19.75;19.75;28.00;22.40;;;;;;5050453;28;11490;-63
2021/12/19 12:31:25;;;;;;;;;25.25;25.25;27.50;22.00;;;;;;5048929;28;11465;-64
2021/12/19 12:33:51;;;;;;;;;25.00;25.00;28.10;22.20;;;;;;5049949;28;8788;-64
2021/12/19 12:36:18;;;;;;;;;17.50;17.50;28.20;22.40;;;;;;5049331;28;11575;-65
2021/12/19 12:38:49;;;;;;;;;21.75;21.75;28.70;21.50;;;;;;5050906;28;11462;-64
2021/12/19 12:41:28;;;;;;;;;17.25;17.25;27.00;22.60;;;;;;5051646;28;11578;-66
2021/12/19 12:43:55;;;;;;;;;20.75;20.75;28.60;22.00;;;;;;5051664;28;12154;-66
2021/12/19 12:46:24;;;;;;;;;20.75;20.75;29.40;21.40;;;;;;5051265;28;12246;-68
2021/12/19 12:48:57;;;;;;;;;17.25;17.25;27.70;22.20;;;;;;5051434;28;11503;-65
2021/12/19 12:51:27;;;;;;;;;26.00;26.00;26.50;23.20;;;;;;5055023;28;11607;-65
2021/12/19 12:53:57;;;;;;;;;25.00;25.00;26.50;23.30;;;;;;5065454;28;12272;-69
2021/12/19 12:56:38;;;;;;;;;24.25;24.25;26.40;23.90;;;;;;5060415;28;11556;-68
2021/12/19 12:59:05;;;;;;;;;24.25;23.75;26.20;23.40;;;;;;5066001;28;11507;-66
2021/12/19 13:01:42;;;;;;;;;23.67;23.00;24.30;25.10;;;;;;5070527;28;11523;-65
2021/12/19 13:04:20;;;;;;;;;26.00;26.00;22.80;27.10;;;;;;5062788;28;11511;-67
2021/12/19 13:06:58;;;;;;;;;12.67;12.67;23.10;26.30;;;;;;5073259;28;11517;-65
2021/12/19 13:09:29;;;;;;;;;22.00;22.00;24.50;25.60;;;;;;5064882;28;12134;-68
2021/12/19 13:12:16;;;;;;;;;25.25;25.25;24.20;25.00;;;;;;5064501;28;11529;-66
2021/12/19 13:14:45;;;;;;;;;24.50;24.50;25.00;25.10;;;;;;5053085;28;11591;-66
2021/12/19 13:17:15;;;;;;;;;25.67;25.67;25.70;24.20;;;;;;5060659;28;11538;-63
2021/12/19 13:19:46;;;;;;;;;27.75;27.75;23.00;26.30;;;;;;5063850;28;11530;-67
2021/12/19 13:22:22;;;;;;;;;29.00;28.33;22.80;27.50;;;;;;5066701;28;11525;-68
2021/12/19 13:24:50;;;;;;;;;38.33;34.67;23.90;26.00;;;;;;5067124;28;11486;-69
2021/12/19 13:27:22;;;;;;;;;28.00;28.00;23.90;25.50;;;;;;5065584;28;8785;-69
2021/12/19 13:30:03;;;;;;;;;27.67;27.67;22.60;27.10;;;;;;5077051;28;12217;-67
2021/12/19 13:32:36;;;;;;;;;30.67;30.00;20.90;27.80;;;;;;5076730;28;11500;-68
2021/12/19 13:35:12;;;;;;;;;33.33;31.67;18.50;31.10;;;;;;5076889;28;8772;-69
2021/12/19 13:38:05;;;;;;;;;37.00;33.67;17.70;33.10;;;;;;5077065;28;8804;-69
2021/12/19 13:40:38;;;;;;;;;41.67;37.67;18.00;32.30;;;;;;5076837;28;8780;-68
2021/12/19 13:43:08;;;;;;;;;40.33;36.33;17.50;33.10;;;;;;5072980;28;8760;-66
2021/12/19 13:45:44;;;;;;;;;48.00;41.33;17.00;34.00;;;;;;5061930;28;8783;-68
2021/12/19 13:48:30;;;;;;;;;52.75;44.00;16.00;36.10;;;;;;5066678;28;8810;-69